Time;durP1;ratioP1;P1;durP2;ratioP2;P2;SDS_P1;SDS_P2;PMS_P1;PMS_P2;Temp;Humidity;BMP_temperature;BMP_pressure;BME280_temperature;BME280_humidity;BME280_pressure;Samples;Min_cycle;Max_cycle;Signal;HPM_P1;HPM_P2
2022/11/30 00:00:11;;;;;;;;;;;3.40;89.30;;;;;;5053364;28;20039;-87
2022/11/30 00:02:37;;;;;;;;;;;3.50;88.80;;;;;;5035653;28;19953;-87
2022/11/30 00:05:03;;;;;;;;;;;3.60;88.40;;;;;;5054000;28;20461;-87
2022/11/30 00:07:28;;;;;;;;;;;3.60;88.30;;;;;;5053848;28;19937;-87
2022/11/30 00:09:54;;;;;;;;;;;3.60;88.20;;;;;;5053626;28;19945;-86
2022/11/30 00:12:19;;;;;;;;;;;3.60;88.10;;;;;;5053615;28;19963;-87
2022/11/30 00:14:45;;;;;;;;;;;3.50;88.40;;;;;;5053839;28;20309;-87
2022/11/30 00:17:10;;;;;;;;;;;3.50;88.70;;;;;;5053506;28;19948;-87
2022/11/30 00:19:36;;;;;;;;;;;3.50;88.50;;;;;;5053709;28;19940;-87
2022/11/30 00:22:01;;;;;;;;;;;3.40;88.20;;;;;;5053584;28;19976;-87
2022/11/30 00:24:27;;;;;;;;;;;3.40;88.20;;;;;;5053237;28;19981;-87
2022/11/30 00:26:53;;;;;;;;;;;3.40;88.30;;;;;;5053365;28;20036;-87
2022/11/30 00:29:18;;;;;;;;;;;3.30;88.30;;;;;;5053410;28;20395;-87
2022/11/30 00:31:44;;;;;;;;;;;3.40;88.60;;;;;;5053797;28;19952;-86
2022/11/30 00:34:09;;;;;;;;;;;3.50;88.50;;;;;;5053371;28;19957;-86
2022/11/30 00:36:35;;;;;;;;;;;3.50;88.60;;;;;;5053173;28;19952;-86
2022/11/30 00:39:00;;;;;;;;;;;3.60;88.70;;;;;;5053418;28;19937;-86
2022/11/30 00:41:26;;;;;;;;;;;3.70;88.40;;;;;;5053404;28;19939;-87
2022/11/30 00:43:51;;;;;;;;;;;3.80;88.30;;;;;;5053123;28;19961;-87
2022/11/30 00:46:17;;;;;;;;;;;3.80;88.30;;;;;;5053310;28;19940;-86
2022/11/30 00:48:42;;;;;;;;;;;3.70;88.00;;;;;;5053572;28;19941;-87
2022/11/30 00:51:09;;;;;;;;;;;3.50;87.90;;;;;;5053233;28;19964;-86
2022/11/30 00:53:34;;;;;;;;;;;3.50;88.90;;;;;;5052497;28;19966;-86
2022/11/30 00:56:00;;;;;;;;;;;3.60;88.40;;;;;;5053145;28;20351;-86
2022/11/30 00:58:26;;;;;;;;;;;3.70;87.90;;;;;;5053172;28;19944;-86
2022/11/30 01:00:51;;;;;;;;;;;3.90;87.30;;;;;;5053151;28;19938;-86
2022/11/30 01:03:17;;;;;;;;;;;4.00;86.70;;;;;;5052771;28;19952;-86
2022/11/30 01:05:42;;;;;;;;;;;4.10;87.00;;;;;;5052630;28;19949;-86
2022/11/30 01:08:09;;;;;;;;;;;4.20;87.00;;;;;;5052634;28;19964;-86
2022/11/30 01:10:35;;;;;;;;;;;4.40;87.00;;;;;;5052977;28;19968;-86
2022/11/30 01:13:01;;;;;;;;;;;4.40;87.30;;;;;;5052621;28;20004;-86
2022/11/30 01:15:26;;;;;;;;;;;4.40;87.50;;;;;;5052969;28;19938;-86
2022/11/30 01:17:52;;;;;;;;;;;4.40;86.40;;;;;;5052956;28;19937;-87
2022/11/30 01:20:18;;;;;;;;;;;4.30;86.60;;;;;;5053132;28;19951;-87
2022/11/30 01:22:43;;;;;;;;;;;4.40;86.30;;;;;;5052422;28;20427;-87
2022/11/30 01:25:09;;;;;;;;;;;4.50;84.40;;;;;;5052887;28;19942;-87
2022/11/30 01:27:35;;;;;;;;;;;4.60;84.40;;;;;;5052326;28;20005;-87
2022/11/30 01:30:00;;;;;;;;;;;4.70;83.50;;;;;;5052699;28;19949;-86
2022/11/30 01:32:26;;;;;;;;;;;4.80;83.80;;;;;;5052449;28;19963;-87
2022/11/30 01:34:52;;;;;;;;;;;4.90;83.80;;;;;;5053900;28;19972;-87
2022/11/30 01:37:17;;;;;;;;;;;4.90;84.10;;;;;;5056784;28;19995;-86
2022/11/30 01:39:43;;;;;;;;;;;4.90;84.10;;;;;;5056759;28;20308;-87
2022/11/30 01:42:13;;;;;;;;;;;4.90;84.90;;;;;;5056634;28;19965;-86
2022/11/30 01:44:47;;;;;;;;;;;4.90;84.50;;;;;;5056408;28;19953;-86
2022/11/30 01:47:13;;;;;;;;;;;4.90;84.00;;;;;;5056870;28;19938;-86
2022/11/30 01:49:42;;;;;;;;;;;5.00;84.00;;;;;;5038569;28;19965;-86
2022/11/30 01:52:12;;;;;;;;;;;5.10;82.80;;;;;;5056570;28;19963;-87
2022/11/30 01:54:49;;;;;;;;;;;5.20;82.90;;;;;;5056098;28;19997;-87
2022/11/30 01:57:18;;;;;;;;;;;5.20;83.00;;;;;;5056426;28;19999;-87
2022/11/30 01:59:44;;;;;;;;;;;5.40;82.50;;;;;;5038275;28;19953;-87
2022/11/30 02:02:10;;;;;;;;;;;5.30;82.50;;;;;;5056410;28;19938;-87
2022/11/30 02:04:36;;;;;;;;;;;5.40;83.40;;;;;;5055700;28;19952;-86
2022/11/30 02:07:04;;;;;;;;;;;5.40;84.90;;;;;;5056526;28;19951;-87
2022/11/30 02:09:30;;;;;;;;;;;5.30;85.40;;;;;;5056214;28;19938;-86
2022/11/30 02:11:56;;;;;;;;;;;5.30;85.90;;;;;;5038294;28;19949;-86
2022/11/30 02:14:25;;;;;;;;;;;5.20;85.00;;;;;;5055596;28;19943;-86
2022/11/30 02:17:13;;;;;;;;;;;5.20;85.60;;;;;;5055987;28;19948;-86
2022/11/30 02:19:48;;;;;;;;;;;5.20;86.20;;;;;;5055556;28;19999;-86
2022/11/30 02:22:22;;;;;;;;;;;5.20;86.10;;;;;;5056026;28;20369;-87
2022/11/30 02:24:57;;;;;;;;;;;5.20;86.30;;;;;;5055602;28;19949;-86
2022/11/30 02:27:22;;;;;;;;;;;5.20;86.50;;;;;;5055903;28;19941;-86
2022/11/30 02:29:50;;;;;;;;;;;5.30;86.10;;;;;;5055896;28;20032;-86
2022/11/30 02:32:22;;;;;;;;;;;5.10;86.50;;;;;;5055740;28;19962;-86
2022/11/30 02:34:48;;;;;;;;;;;5.10;86.90;;;;;;5055487;28;19955;-86
2022/11/30 02:37:15;;;;;;;;;;;5.00;86.20;;;;;;5055950;28;19966;-86
2022/11/30 02:39:41;;;;;;;;;;;5.00;86.20;;;;;;5055963;28;19944;-87
2022/11/30 02:42:16;;;;;;;;;;;5.10;86.20;;;;;;5055686;28;19937;-86
2022/11/30 02:44:46;;;;;;;;;;;5.20;85.40;;;;;;5055386;28;19945;-87
2022/11/30 02:47:16;;;;;;;;;;;5.20;85.50;;;;;;5055143;28;19970;-87
2022/11/30 02:49:47;;;;;;;;;;;5.30;86.00;;;;;;5055096;28;19978;-87
2022/11/30 02:52:13;;;;;;;;;;;5.20;86.60;;;;;;5055239;28;19972;-86
2022/11/30 02:54:39;;;;;;;;;;;5.30;85.80;;;;;;5054668;28;19992;-86
2022/11/30 02:57:05;;;;;;;;;;;5.30;85.10;;;;;;5055561;28;20406;-87
2022/11/30 02:59:31;;;;;;;;;;;5.30;85.40;;;;;;5055280;28;19987;-86
2022/11/30 03:01:56;;;;;;;;;;;5.40;84.90;;;;;;5054905;28;20397;-86
2022/11/30 03:04:22;;;;;;;;;;;5.40;84.60;;;;;;5055174;28;20396;-86
2022/11/30 03:06:48;;;;;;;;;;;5.30;84.70;;;;;;5055098;28;19948;-87
2022/11/30 03:09:13;;;;;;;;;;;5.40;84.10;;;;;;5054744;28;19942;-86
2022/11/30 03:11:39;;;;;;;;;;;5.40;82.90;;;;;;5055034;28;20414;-87
2022/11/30 03:14:04;;;;;;;;;;;5.40;83.20;;;;;;5054943;28;20492;-87
2022/11/30 03:16:30;;;;;;;;;;;5.50;83.30;;;;;;5054976;28;19962;-86
2022/11/30 03:18:56;;;;;;;;;;;5.50;83.80;;;;;;5054688;28;19950;-86
2022/11/30 03:21:22;;;;;;;;;;;5.30;84.50;;;;;;5054772;28;19948;-87
2022/11/30 03:23:47;;;;;;;;;;;5.30;84.50;;;;;;5054676;28;19979;-87
2022/11/30 03:26:13;;;;;;;;;;;5.10;84.50;;;;;;5054793;28;19995;-87
2022/11/30 03:28:38;;;;;;;;;;;5.20;84.70;;;;;;5054279;28;19943;-86
2022/11/30 03:31:04;;;;;;;;;;;5.20;84.80;;;;;;5054469;28;19949;-86
2022/11/30 03:33:30;;;;;;;;;;;5.20;84.20;;;;;;5054620;28;19960;-87
2022/11/30 03:35:59;;;;;;;;;;;5.10;84.70;;;;;;5054595;28;19946;-86
2022/11/30 03:38:25;;;;;;;;;;;5.20;84.80;;;;;;5054264;28;19969;-87
2022/11/30 03:40:57;;;;;;;;;;;5.10;84.60;;;;;;5054508;28;19939;-87
2022/11/30 03:43:23;;;;;;;;;;;5.10;85.20;;;;;;5054431;28;19942;-87
2022/11/30 03:45:49;;;;;;;;;;;5.20;84.80;;;;;;5054575;28;20396;-86
2022/11/30 03:48:14;;;;;;;;;;;5.10;84.70;;;;;;5054162;28;20026;-87
2022/11/30 03:50:41;;;;;;;;;;;5.10;84.80;;;;;;5053980;28;19953;-87
2022/11/30 03:53:06;;;;;;;;;;;5.10;85.20;;;;;;5054027;28;20031;-86
2022/11/30 03:55:32;;;;;;;;;;;4.90;85.30;;;;;;5054159;28;20299;-87
2022/11/30 03:57:57;;;;;;;;;;;5.00;85.50;;;;;;5052988;28;19981;-87
2022/11/30 04:00:23;;;;;;;;;;;5.10;85.30;;;;;;5053782;28;19951;-87
2022/11/30 04:02:48;;;;;;;;;;;5.20;85.30;;;;;;5053861;28;20041;-87
2022/11/30 04:05:14;;;;;;;;;;;5.10;85.70;;;;;;5053535;28;19949;-87
2022/11/30 04:07:39;;;;;;;;;;;5.00;86.20;;;;;;5053958;28;19950;-87
2022/11/30 04:10:05;;;;;;;;;;;5.00;85.90;;;;;;5053949;28;19939;-86
2022/11/30 04:12:31;;;;;;;;;;;4.90;85.70;;;;;;5053522;28;20405;-87
2022/11/30 04:14:56;;;;;;;;;;;4.90;85.80;;;;;;5053899;28;19957;-86
2022/11/30 04:17:22;;;;;;;;;;;4.90;85.90;;;;;;5053754;28;20472;-87
2022/11/30 04:19:48;;;;;;;;;;;4.90;85.90;;;;;;5053580;28;20028;-86
2022/11/30 04:22:13;;;;;;;;;;;4.80;85.90;;;;;;5053387;28;19949;-86
2022/11/30 04:24:39;;;;;;;;;;;4.90;85.80;;;;;;5035208;28;19978;-87
2022/11/30 04:27:04;;;;;;;;;;;4.80;86.20;;;;;;5053500;28;19962;-87
2022/11/30 04:29:30;;;;;;;;;;;4.80;86.00;;;;;;5053603;28;19939;-87
2022/11/30 04:31:55;;;;;;;;;;;4.80;85.90;;;;;;5053194;28;19946;-86
2022/11/30 04:34:21;;;;;;;;;;;4.80;86.00;;;;;;5053307;28;19945;-87
2022/11/30 04:36:47;;;;;;;;;;;4.70;86.50;;;;;;5053485;28;19940;-87
2022/11/30 04:39:12;;;;;;;;;;;4.60;87.00;;;;;;5053006;28;20341;-87
2022/11/30 04:41:38;;;;;;;;;;;4.60;87.00;;;;;;5053067;28;19953;-87
2022/11/30 04:44:04;;;;;;;;;;;4.50;87.30;;;;;;5053262;28;19942;-87
2022/11/30 04:46:29;;;;;;;;;;;4.50;87.20;;;;;;5053226;28;20532;-86
2022/11/30 04:48:55;;;;;;;;;;;4.50;87.30;;;;;;5053285;28;19946;-87
2022/11/30 04:51:20;;;;;;;;;;;4.50;87.80;;;;;;5053035;28;19978;-87
2022/11/30 04:53:46;;;;;;;;;;;4.50;87.90;;;;;;5052747;28;19969;-87
2022/11/30 04:56:11;;;;;;;;;;;4.50;87.30;;;;;;5053198;28;19944;-87
2022/11/30 04:58:37;;;;;;;;;;;4.50;87.40;;;;;;5053178;28;19959;-87
2022/11/30 05:01:03;;;;;;;;;;;4.50;86.50;;;;;;5053095;28;20022;-87
2022/11/30 05:03:29;;;;;;;;;;;4.30;86.30;;;;;;5052943;28;20423;-87
2022/11/30 05:05:54;;;;;;;;;;;4.20;86.60;;;;;;5053094;28;19945;-87
2022/11/30 05:08:20;;;;;;;;;;;4.30;87.60;;;;;;5053030;28;20471;-87
2022/11/30 05:10:50;;;;;;;;;;;4.20;88.20;;;;;;5052183;28;20391;-87
2022/11/30 05:13:15;;;;;;;;;;;4.20;88.20;;;;;;5052675;28;20057;-86
2022/11/30 05:15:41;;;;;;;;;;;4.10;87.90;;;;;;5053032;28;20042;-86
2022/11/30 05:18:06;;;;;;;;;;;4.00;87.70;;;;;;5052487;28;19968;-87
2022/11/30 05:20:32;;;;;;;;;;;3.90;87.40;;;;;;5052686;28;20392;-87
2022/11/30 05:22:57;;;;;;;;;;;3.90;87.60;;;;;;5052773;28;20494;-87
2022/11/30 05:25:23;;;;;;;;;;;4.00;87.90;;;;;;5052946;28;20403;-87
2022/11/30 05:27:48;;;;;;;;;;;4.10;87.80;;;;;;5052573;28;20429;-87
2022/11/30 05:30:14;;;;;;;;;;;4.20;87.40;;;;;;5052746;28;19941;-87
2022/11/30 05:32:39;;;;;;;;;;;4.30;86.20;;;;;;5052714;28;19964;-86
2022/11/30 05:35:05;;;;;;;;;;;4.20;86.60;;;;;;5052576;28;20036;-87
2022/11/30 05:37:31;;;;;;;;;;;4.00;87.30;;;;;;5052202;28;19947;-87
2022/11/30 05:39:56;;;;;;;;;;;3.80;88.60;;;;;;5052739;28;19996;-87
2022/11/30 05:42:22;;;;;;;;;;;3.80;88.70;;;;;;5052817;28;19973;-87
2022/11/30 05:44:47;;;;;;;;;;;3.80;89.20;;;;;;5052726;28;20178;-86
2022/11/30 05:47:13;;;;;;;;;;;3.70;89.30;;;;;;5052038;28;20290;-86
2022/11/30 05:49:38;;;;;;;;;;;3.70;88.90;;;;;;5052646;28;19982;-86
2022/11/30 05:52:04;;;;;;;;;;;3.60;88.60;;;;;;5052490;28;19999;-86
2022/11/30 05:54:30;;;;;;;;;;;3.50;88.20;;;;;;5052543;28;19986;-86
2022/11/30 05:56:55;;;;;;;;;;;3.50;89.50;;;;;;5052337;28;19952;-86
2022/11/30 05:59:21;;;;;;;;;;;3.40;90.20;;;;;;5052594;28;19977;-87
2022/11/30 06:01:47;;;;;;;;;;;3.40;90.10;;;;;;5052548;28;19969;-86
2022/11/30 06:04:12;;;;;;;;;;;3.30;90.00;;;;;;5052529;28;19942;-86
2022/11/30 06:06:38;;;;;;;;;;;3.20;90.70;;;;;;5052158;28;19956;-86
2022/11/30 06:09:04;;;;;;;;;;;3.20;90.10;;;;;;5052518;28;19976;-87
2022/11/30 06:11:29;;;;;;;;;;;3.10;89.70;;;;;;5052459;28;20412;-86
2022/11/30 06:13:55;;;;;;;;;;;3.10;89.50;;;;;;5052435;28;20042;-86
2022/11/30 06:16:20;;;;;;;;;;;3.20;89.50;;;;;;5034302;28;19948;-86
2022/11/30 06:18:46;;;;;;;;;;;3.30;89.60;;;;;;5052382;28;19945;-86
2022/11/30 06:21:11;;;;;;;;;;;3.50;89.00;;;;;;5053903;28;19949;-86
2022/11/30 06:23:37;;;;;;;;;;;3.40;88.50;;;;;;5055653;28;19975;-86
2022/11/30 06:26:03;;;;;;;;;;;3.40;88.60;;;;;;5055738;28;20391;-86
2022/11/30 06:28:29;;;;;;;;;;;3.30;89.00;;;;;;5035910;28;19994;-86
2022/11/30 06:30:58;;;;;;;;;;;3.30;89.70;;;;;;5051632;28;20031;-86
2022/11/30 06:33:24;;;;;;;;;;;3.30;90.00;;;;;;5052967;28;19976;-86
2022/11/30 06:35:50;;;;;;;;;;;3.20;90.20;;;;;;5053321;28;19945;-87
2022/11/30 06:38:15;;;;;;;;;;;3.20;90.30;;;;;;5066051;28;20418;-87
2022/11/30 06:40:41;;;;;;;;;;;3.20;90.50;;;;;;5052015;28;20015;-86
2022/11/30 06:43:06;;;;;;;;;;;3.20;90.50;;;;;;5054131;28;19941;-86
2022/11/30 06:45:32;;;;;;;;;;;3.20;90.30;;;;;;5052662;28;19941;-87
2022/11/30 06:47:57;;;;;;;;;;;3.10;89.90;;;;;;5055049;28;19944;-87
2022/11/30 06:50:23;;;;;;;;;;;3.10;89.60;;;;;;5053734;28;20409;-87
2022/11/30 06:52:49;;;;;;;;;;;3.20;89.40;;;;;;5053907;28;20003;-87
2022/11/30 06:55:15;;;;;;;;;;;3.30;89.30;;;;;;5054633;28;19945;-87
2022/11/30 06:57:40;;;;;;;;;;;3.40;89.30;;;;;;5054989;28;19965;-87
2022/11/30 07:00:07;;;;;;;;;;;3.40;89.10;;;;;;5045967;28;20434;-87
2022/11/30 07:02:32;;;;;;;;;;;3.40;89.10;;;;;;5049406;28;19942;-87
2022/11/30 07:04:58;;;;;;;;;;;3.40;88.90;;;;;;5049161;28;19953;-86
2022/11/30 07:07:24;;;;;;;;;;;3.40;89.40;;;;;;5047724;28;19947;-87
2022/11/30 07:09:49;;;;;;;;;;;3.40;89.10;;;;;;5049945;28;19948;-86
2022/11/30 07:12:15;;;;;;;;;;;3.40;88.90;;;;;;5051231;28;19941;-86
2022/11/30 07:14:42;;;;;;;;;;;3.30;89.00;;;;;;5047497;28;20045;-86
2022/11/30 07:17:08;;;;;;;;;;;3.20;88.90;;;;;;5051686;28;19948;-86
2022/11/30 07:19:34;;;;;;;;;;;3.20;89.40;;;;;;5053052;28;19953;-86
2022/11/30 07:21:59;;;;;;;;;;;3.20;89.90;;;;;;5052916;28;19979;-86
2022/11/30 07:27:09;;;;;;;;;;;3.30;90.00;;;;;;5050968;28;19952;-87
2022/11/30 07:29:35;;;;;;;;;;;3.50;90.10;;;;;;5050750;28;20312;-87
2022/11/30 07:32:00;;;;;;;;;;;3.70;89.90;;;;;;5050476;28;20406;-87
2022/11/30 07:34:26;;;;;;;;;;;3.80;89.00;;;;;;5053632;28;20485;-87
2022/11/30 07:36:51;;;;;;;;;;;3.80;88.70;;;;;;5053070;28;19952;-86
2022/11/30 07:39:17;;;;;;;;;;;3.90;88.80;;;;;;5052353;28;19945;-86
2022/11/30 07:41:42;;;;;;;;;;;3.80;88.60;;;;;;5046073;28;19946;-86
2022/11/30 07:44:08;;;;;;;;;;;3.90;89.20;;;;;;5044075;28;20028;-86
2022/11/30 07:46:35;;;;;;;;;;;4.10;90.10;;;;;;5050090;28;19960;-87
2022/11/30 07:49:01;;;;;;;;;;;4.30;90.00;;;;;;5050286;28;20398;-86
2022/11/30 07:51:26;;;;;;;;;;;4.40;89.50;;;;;;5043154;28;19943;-87
2022/11/30 07:53:54;;;;;;;;;;;4.50;89.50;;;;;;5063667;28;20027;-86
2022/11/30 07:56:20;;;;;;;;;;;4.70;89.30;;;;;;5070134;28;20306;-86
2022/11/30 07:58:46;;;;;;;;;;;4.70;88.60;;;;;;5066377;28;19961;-87
2022/11/30 08:01:13;;;;;;;;;;;4.70;88.50;;;;;;5066409;28;19949;-87
2022/11/30 08:03:39;;;;;;;;;;;4.70;88.70;;;;;;5059745;28;19976;-86
2022/11/30 08:06:06;;;;;;;;;;;4.90;88.70;;;;;;5060243;28;19947;-88
2022/11/30 08:08:32;;;;;;;;;;;5.00;88.70;;;;;;5065429;28;19967;-87
2022/11/30 08:10:59;;;;;;;;;;;5.20;87.90;;;;;;5072093;28;20001;-87
2022/11/30 08:13:25;;;;;;;;;;;5.40;87.00;;;;;;5068214;28;20480;-86
2022/11/30 08:15:50;;;;;;;;;;;5.50;86.70;;;;;;5066377;28;20040;-87
2022/11/30 08:18:16;;;;;;;;;;;5.60;86.50;;;;;;5059002;28;19961;-87
2022/11/30 08:20:42;;;;;;;;;;;5.70;86.00;;;;;;5063467;28;20040;-87
2022/11/30 08:23:07;;;;;;;;;;;5.90;85.60;;;;;;5071448;28;20337;-87
2022/11/30 08:25:33;;;;;;;;;;;6.20;84.90;;;;;;5066674;28;19984;-86
2022/11/30 08:27:58;;;;;;;;;;;6.30;84.60;;;;;;5066078;28;20030;-87
2022/11/30 08:30:24;;;;;;;;;;;6.50;84.20;;;;;;5067341;28;19963;-87
2022/11/30 08:32:50;;;;;;;;;;;6.70;83.20;;;;;;5066115;28;19957;-87
2022/11/30 08:35:16;;;;;;;;;;;7.00;81.80;;;;;;5069454;28;19953;-87
2022/11/30 08:37:41;;;;;;;;;;;7.20;80.90;;;;;;5065278;28;19979;-86
2022/11/30 08:40:07;;;;;;;;;;;7.40;79.60;;;;;;5068335;28;19940;-86
2022/11/30 08:42:33;;;;;;;;;;;7.50;77.60;;;;;;5069306;28;19950;-86
2022/11/30 08:44:58;;;;;;;;;;;7.60;77.10;;;;;;5065217;28;20392;-86
2022/11/30 08:47:24;;;;;;;;;;;7.60;75.90;;;;;;5070894;28;19944;-86
2022/11/30 08:49:49;;;;;;;;;;;7.70;75.70;;;;;;5068536;28;19965;-86
2022/11/30 08:52:15;;;;;;;;;;;7.70;75.40;;;;;;5065928;28;19965;-86
2022/11/30 08:54:44;;;;;;;;;;;7.80;75.40;;;;;;5068583;28;19943;-86
2022/11/30 08:57:10;;;;;;;;;;;7.80;75.00;;;;;;5066092;28;20019;-86
2022/11/30 08:59:36;;;;;;;;;;;7.70;75.10;;;;;;5061157;28;20395;-85
2022/11/30 09:02:01;;;;;;;;;;;7.70;74.10;;;;;;5071912;28;19944;-86
2022/11/30 09:04:27;;;;;;;;;;;7.70;72.10;;;;;;5070147;28;19938;-86
2022/11/30 09:06:52;;;;;;;;;;;7.90;71.80;;;;;;5068268;28;19945;-87
2022/11/30 09:09:18;;;;;;;;;;;8.20;71.00;;;;;;5063445;28;20040;-88
2022/11/30 09:11:43;;;;;;;;;;;8.40;70.50;;;;;;5064892;28;19943;-87
2022/11/30 09:14:09;;;;;;;;;;;8.50;69.80;;;;;;5068285;28;20015;-87
2022/11/30 09:16:35;;;;;;;;;;;8.60;70.70;;;;;;5066896;28;19947;-87
2022/11/30 09:19:01;;;;;;;;;;;8.70;69.60;;;;;;5067477;28;19950;-87
2022/11/30 09:21:26;;;;;;;;;;;8.70;68.60;;;;;;5071828;28;20428;-86
2022/11/30 09:23:54;;;;;;;;;;;8.40;69.30;;;;;;5068723;28;19969;-86
2022/11/30 09:26:22;;;;;;;;;;;8.20;69.50;;;;;;5071212;28;19965;-87
2022/11/30 09:28:48;;;;;;;;;;;8.20;69.40;;;;;;5067593;28;19950;-87
2022/11/30 09:31:15;;;;;;;;;;;8.40;70.60;;;;;;5065273;28;19951;-86
2022/11/30 09:33:41;;;;;;;;;;;8.50;67.90;;;;;;5063152;28;19964;-86
2022/11/30 09:36:08;;;;;;;;;;;8.60;67.10;;;;;;5060224;28;20114;-86
2022/11/30 09:38:33;;;;;;;;;;;8.70;66.30;;;;;;5060636;28;19981;-86
2022/11/30 09:41:00;;;;;;;;;;;8.80;65.90;;;;;;5066883;28;20043;-86
2022/11/30 09:43:35;;;;;;;;;;;9.00;64.10;;;;;;5058457;28;19956;-87
2022/11/30 09:46:02;;;;;;;;;;;9.00;63.40;;;;;;5061736;28;19953;-87
2022/11/30 09:48:40;;;;;;;;;;;9.10;63.10;;;;;;5063248;28;19957;-86
2022/11/30 09:51:13;;;;;;;;;;;9.00;63.20;;;;;;5054805;28;20342;-87
2022/11/30 09:53:40;;;;;;;;;;;9.30;62.30;;;;;;5065730;28;19963;-86
2022/11/30 09:56:29;;;;;;;;;;;9.60;60.40;;;;;;5068538;28;19944;-86
2022/11/30 09:58:58;;;;;;;;;;;9.50;60.80;;;;;;5057632;28;19947;-86
2022/11/30 10:01:24;;;;;;;;;;;9.50;61.70;;;;;;5061616;28;19951;-86
2022/11/30 10:03:50;;;;;;;;;;;9.40;60.40;;;;;;5070784;28;19946;-86
2022/11/30 10:06:19;;;;;;;;;;;9.30;59.70;;;;;;5056273;28;20030;-86
2022/11/30 10:08:48;;;;;;;;;;;9.50;59.50;;;;;;5065665;28;19972;-86
2022/11/30 10:11:25;;;;;;;;;;;9.50;58.70;;;;;;5070134;28;20475;-86
2022/11/30 10:13:51;;;;;;;;;;;9.50;58.70;;;;;;5071178;28;19964;-86
2022/11/30 10:16:25;;;;;;;;;;;9.80;58.50;;;;;;5059639;28;21616;-86
2022/11/30 10:18:56;;;;;;;;;;;10.00;58.10;;;;;;5068418;28;19950;-86
2022/11/30 10:21:22;;;;;;;;;;;10.10;57.40;;;;;;5072303;28;19944;-87
2022/11/30 10:23:48;;;;;;;;;;;10.30;58.70;;;;;;5070138;28;20333;-86
2022/11/30 10:26:15;;;;;;;;;;;10.40;58.10;;;;;;5067024;28;20041;-87
2022/11/30 10:28:54;;;;;;;;;;;10.40;57.70;;;;;;5056163;28;19947;-86
2022/11/30 10:31:25;;;;;;;;;;;10.70;57.30;;;;;;5063022;28;19954;-86
2022/11/30 10:33:53;;;;;;;;;;;10.60;56.10;;;;;;5070832;28;19965;-86
2022/11/30 10:36:24;;;;;;;;;;;10.40;57.00;;;;;;5069544;28;19945;-86
2022/11/30 10:38:53;;;;;;;;;;;10.30;54.50;;;;;;5068672;28;20384;-86
2022/11/30 10:41:37;;;;;;;;;;;10.30;55.40;;;;;;5071724;28;19969;-86
2022/11/30 10:44:09;;;;;;;;;;;10.40;56.90;;;;;;5068952;28;19954;-86
2022/11/30 10:46:36;;;;;;;;;;;10.60;54.70;;;;;;5072465;28;20453;-87
2022/11/30 10:49:09;;;;;;;;;;;10.90;53.90;;;;;;5058643;28;19950;-86
2022/11/30 10:51:36;;;;;;;;;;;11.40;52.70;;;;;;5068568;28;19948;-86
2022/11/30 10:54:04;;;;;;;;;;;11.60;51.40;;;;;;5070595;28;19989;-87
2022/11/30 10:56:29;;;;;;;;;;;11.80;52.10;;;;;;5066919;28;20418;-87
2022/11/30 10:58:57;;;;;;;;;;;11.90;51.20;;;;;;5069198;28;19951;-87
2022/11/30 11:01:38;;;;;;;;;;;12.10;50.50;;;;;;5072565;28;19957;-86
2022/11/30 11:04:12;;;;;;;;;;;11.40;50.40;;;;;;5065485;28;19943;-86
2022/11/30 11:06:58;;;;;;;;;;;11.10;51.70;;;;;;5071988;28;19984;-86
2022/11/30 11:09:30;;;;;;;;;;;11.00;51.80;;;;;;5068646;28;19973;-87
2022/11/30 11:11:57;;;;;;;;;;;10.90;53.30;;;;;;5074119;28;19997;-87
2022/11/30 11:14:23;;;;;;;;;;;10.80;51.80;;;;;;5061033;28;20019;-86
2022/11/30 11:17:15;;;;;;;;;;;10.80;52.00;;;;;;5054975;28;19940;-86
2022/11/30 11:19:41;;;;;;;;;;;11.20;52.10;;;;;;5050852;28;19952;-87
2022/11/30 11:22:10;;;;;;;;;;;11.90;49.30;;;;;;5054949;28;19963;-86
2022/11/30 11:24:35;;;;;;;;;;;12.20;47.90;;;;;;5071084;28;19984;-86
2022/11/30 11:27:01;;;;;;;;;;;12.50;48.60;;;;;;5074810;28;19939;-87
2022/11/30 11:29:33;;;;;;;;;;;12.50;48.40;;;;;;5075022;28;19951;-88
2022/11/30 11:32:17;;;;;;;;;;;12.60;47.00;;;;;;5075006;28;19984;-87
2022/11/30 11:34:43;;;;;;;;;;;12.90;45.60;;;;;;5074425;28;19942;-87
2022/11/30 11:37:22;;;;;;;;;;;13.10;46.00;;;;;;5073337;28;19995;-87
2022/11/30 11:39:55;;;;;;;;;;;12.90;47.30;;;;;;5074570;28;19939;-87
2022/11/30 11:42:21;;;;;;;;;;;12.90;47.80;;;;;;5074538;28;19948;-87
2022/11/30 11:44:51;;;;;;;;;;;13.10;47.00;;;;;;5074497;28;19938;-87
2022/11/30 11:47:26;;;;;;;;;;;13.30;46.60;;;;;;5074345;28;19942;-87
2022/11/30 11:50:03;;;;;;;;;;;13.60;44.80;;;;;;5074101;28;20002;-87
2022/11/30 11:52:28;;;;;;;;;;;14.30;44.20;;;;;;5073977;28;19967;-88
2022/11/30 11:55:20;;;;;;;;;;;14.90;42.40;;;;;;5074210;28;20471;-87
2022/11/30 11:57:52;;;;;;;;;;;15.50;40.00;;;;;;5069925;28;19951;-87
2022/11/30 12:00:19;;;;;;;;;;;15.80;39.70;;;;;;5074157;28;19988;-87
2022/11/30 12:02:50;;;;;;;;;;;16.30;39.50;;;;;;5072997;28;19954;-87
2022/11/30 12:05:23;;;;;;;;;;;16.80;37.50;;;;;;5073373;28;19946;-86
2022/11/30 12:08:07;;;;;;;;;;;15.40;39.80;;;;;;5074083;28;19959;-87
2022/11/30 12:10:37;;;;;;;;;;;14.40;41.80;;;;;;5061298;28;19943;-87
2022/11/30 12:13:10;;;;;;;;;;;14.00;43.50;;;;;;5073006;28;19963;-87
2022/11/30 12:15:43;;;;;;;;;;;14.00;43.70;;;;;;5073780;28;19947;-87
2022/11/30 12:18:08;;;;;;;;;;;13.80;44.10;;;;;;5073357;28;19947;-87
2022/11/30 12:20:52;;;;;;;;;;;13.80;43.60;;;;;;5073428;28;19943;-87
2022/11/30 12:23:42;;;;;;;;;;;13.90;43.80;;;;;;5073526;28;20371;-87
2022/11/30 12:26:11;;;;;;;;;;;14.20;44.20;;;;;;5053665;28;19951;-87
2022/11/30 12:28:36;;;;;;;;;;;14.30;44.20;;;;;;5053393;28;20303;-87
2022/11/30 12:31:02;;;;;;;;;;;14.40;42.60;;;;;;5067252;28;19962;-87
2022/11/30 12:33:46;;;;;;;;;;;14.50;42.80;;;;;;5064674;28;19968;-87
2022/11/30 12:36:11;;;;;;;;;;;14.30;42.70;;;;;;5065164;28;19985;-87
2022/11/30 12:38:46;;;;;;;;;;;14.10;44.20;;;;;;5061102;28;19951;-87
2022/11/30 12:41:25;;;;;;;;;;;14.10;43.30;;;;;;5067860;28;19995;-87
2022/11/30 12:43:58;;;;;;;;;;;13.80;46.70;;;;;;5072525;28;20328;-87
2022/11/30 12:46:42;;;;;;;;;;;13.50;46.70;;;;;;5071587;28;19937;-87
2022/11/30 12:49:08;;;;;;;;;;;13.10;47.50;;;;;;5068589;28;19955;-87
2022/11/30 12:51:42;;;;;;;;;;;12.90;47.80;;;;;;5067503;28;19943;-87
2022/11/30 12:54:19;;;;;;;;;;;12.80;47.40;;;;;;5055667;28;19959;-87
2022/11/30 12:56:51;;;;;;;;;;;12.70;47.50;;;;;;5058940;28;19950;-87
2022/11/30 12:59:19;;;;;;;;;;;12.70;49.00;;;;;;5061897;28;19958;-87
2022/11/30 13:01:57;;;;;;;;;;;12.90;47.70;;;;;;5064043;28;20455;-87
2022/11/30 13:04:26;;;;;;;;;;;13.10;47.20;;;;;;5072189;28;19941;-87
2022/11/30 13:06:58;;;;;;;;;;;12.90;47.30;;;;;;5061900;28;19946;-87
2022/11/30 13:09:32;;;;;;;;;;;13.10;47.90;;;;;;5064874;28;19953;-87
2022/11/30 13:12:05;;;;;;;;;;;13.00;47.60;;;;;;5063019;28;20396;-86
2022/11/30 13:14:32;;;;;;;;;;;13.00;46.30;;;;;;5065902;28;20035;-86
2022/11/30 13:17:04;;;;;;;;;;;12.70;46.90;;;;;;5065918;28;19989;-86
2022/11/30 13:19:45;;;;;;;;;;;12.40;48.60;;;;;;5066856;28;20423;-86
2022/11/30 13:22:15;;;;;;;;;;;12.30;49.00;;;;;;5067619;28;19960;-86
2022/11/30 13:24:44;;;;;;;;;;;12.00;51.40;;;;;;5068402;28;19978;-87
2022/11/30 13:27:18;;;;;;;;;;;11.80;51.70;;;;;;5068713;28;19956;-87
2022/11/30 13:29:50;;;;;;;;;;;11.70;52.40;;;;;;5067420;28;19962;-87
2022/11/30 13:32:16;;;;;;;;;;;11.50;52.90;;;;;;5071822;28;19950;-87
2022/11/30 13:34:42;;;;;;;;;;;11.40;54.00;;;;;;5072964;28;19959;-87
2022/11/30 13:37:10;;;;;;;;;;;11.40;54.10;;;;;;5073380;28;20406;-88
2022/11/30 13:39:38;;;;;;;;;;;11.50;55.40;;;;;;5074501;28;20421;-87
2022/11/30 13:42:07;;;;;;;;;;;11.60;55.40;;;;;;5071564;28;19986;-87
2022/11/30 13:44:33;;;;;;;;;;;11.70;53.90;;;;;;5073218;28;19981;-87
2022/11/30 13:47:00;;;;;;;;;;;11.60;53.50;;;;;;5073604;28;20009;-87
2022/11/30 13:49:30;;;;;;;;;;;11.60;53.60;;;;;;5067270;28;20032;-87
2022/11/30 13:51:55;;;;;;;;;;;11.50;53.10;;;;;;5068374;28;20403;-87
2022/11/30 13:54:36;;;;;;;;;;;11.40;54.10;;;;;;5066104;28;19968;-87
2022/11/30 13:57:03;;;;;;;;;;;11.40;54.90;;;;;;5067064;28;19953;-87
2022/11/30 13:59:28;;;;;;;;;;;11.30;55.80;;;;;;5071546;28;19953;-87
2022/11/30 14:02:14;;;;;;;;;;;11.20;55.90;;;;;;5068153;28;20052;-87
2022/11/30 14:04:44;;;;;;;;;;;11.10;55.90;;;;;;5013957;28;20055;-87
2022/11/30 14:07:28;;;;;;;;;;;11.00;57.00;;;;;;5067360;28;19977;-87
2022/11/30 14:09:55;;;;;;;;;;;11.00;56.60;;;;;;5070873;28;19987;-87
2022/11/30 14:12:29;;;;;;;;;;;11.10;57.40;;;;;;5070616;28;21918;-87
2022/11/30 14:14:55;;;;;;;;;;;11.10;57.70;;;;;;5068052;28;19959;-87
2022/11/30 14:17:28;;;;;;;;;;;11.10;57.70;;;;;;5071192;28;20035;-87
2022/11/30 14:20:14;;;;;;;;;;;11.10;56.00;;;;;;5068148;28;21647;-87
2022/11/30 14:22:40;;;;;;;;;;;11.20;55.40;;;;;;5002058;28;1925260;-87
2022/11/30 14:25:11;;;;;;;;;;;11.20;56.10;;;;;;5073410;28;20032;-87
2022/11/30 14:27:37;;;;;;;;;;;11.20;57.20;;;;;;5071272;28;20395;-87
2022/11/30 14:30:03;;;;;;;;;;;11.10;56.50;;;;;;5059846;28;20048;-87
2022/11/30 14:32:33;;;;;;;;;;;11.00;56.20;;;;;;5072215;28;19937;-87